Anabel, Missouri
Current Conditions -  °F | °C
As of 6:55 AM on Saturday 20 Dec 2014 (Local Time) from KIRK Reporting Station
Light Snow Light Snow  
Wind Chill: -2°   Ceiling: 200
Heat Index:   Visibility: 0.25mi
Dew Point:   Wind: 6mph
Humidity: 100%   Direction: 150°SSE
Pressure: 30.2"   Gusts: NA
Location:  39.75°N, 92.34°W
Report Text: KIRK 201255Z AUTO 15005KT 1/4SM -SN FG VV002 01/01 A3020 RMK AO2 SNB44 SLP239 P0000 T00060006
Loading
Personal Weather Stations






























Interactive Weather Map New forecast layout! Learn more

10-Day Weather Forecast

Advertisements
Track Severe Weather on mobile